createdAt,value
2024-04-21T00:01:26.364Z,99772.65
2024-04-21T00:03:57.004Z,99775.21
2024-04-21T00:06:29.084Z,99775.52
2024-04-21T00:09:00.058Z,99778.74
2024-04-21T00:11:31.809Z,99778.52
2024-04-21T00:14:02.610Z,99777.38
2024-04-21T00:16:34.521Z,99775.39
2024-04-21T00:19:05.016Z,99775.27
2024-04-21T00:21:36.479Z,99773.58
2024-04-21T00:24:07.201Z,99779.34
2024-04-21T00:26:38.858Z,99778.40
2024-04-21T00:29:09.373Z,99779.77
2024-04-21T00:31:41.548Z,99781.88
2024-04-21T00:34:12.510Z,99784.27
2024-04-21T00:36:44.895Z,99786.34
2024-04-21T00:39:15.269Z,99787.91
2024-04-21T00:41:47.233Z,99788.33
2024-04-21T00:44:17.667Z,99789.42
2024-04-21T00:46:49.383Z,99784.14
2024-04-21T00:49:19.950Z,99785.38
2024-04-21T00:51:51.739Z,99784.60
2024-04-21T00:54:22.541Z,99785.00
2024-04-21T00:56:54.401Z,99788.17
2024-04-21T00:59:24.839Z,99788.73
2024-04-21T01:01:56.923Z,99786.90
2024-04-21T01:04:27.407Z,99789.23
2024-04-21T01:06:59.197Z,99791.52
2024-04-21T01:09:29.814Z,99790.86
2024-04-21T01:12:01.628Z,99791.42
2024-04-21T01:14:32.095Z,99790.77
2024-04-21T01:17:04.644Z,99794.23
2024-04-21T01:19:35.103Z,99793.00
2024-04-21T01:22:07.318Z,99791.13
2024-04-21T01:24:37.795Z,99792.70
2024-04-21T01:27:09.557Z,99795.34
2024-04-21T01:29:40.087Z,99795.63
2024-04-21T01:32:23.647Z,99794.23
2024-04-21T01:34:55.466Z,99799.52
2024-04-21T01:37:25.899Z,99801.14
2024-04-21T01:39:57.986Z,99796.06
2024-04-21T01:42:28.593Z,99801.05
2024-04-21T01:45:00.556Z,99798.30
2024-04-21T01:47:30.992Z,99798.88
2024-04-21T01:50:02.767Z,99795.66
2024-04-21T01:52:33.275Z,99799.79
2024-04-21T01:55:05.373Z,99798.62
2024-04-21T01:57:37.267Z,99802.61
2024-04-21T02:00:09.363Z,99807.61
2024-04-21T02:02:47.300Z,99802.67
2024-04-21T02:05:17.815Z,99802.88
2024-04-21T02:07:49.339Z,99803.76
2024-04-21T02:10:19.972Z,99803.67
2024-04-21T02:12:51.756Z,99804.75
2024-04-21T02:15:22.172Z,99802.59
2024-04-21T02:17:53.952Z,99803.23
2024-04-21T02:20:24.754Z,99802.91
2024-04-21T02:22:56.403Z,99802.32
2024-04-21T02:25:27.617Z,99802.81
2024-04-21T02:27:59.934Z,99805.30
2024-04-21T02:30:30.668Z,99805.70
2024-04-21T02:33:03.270Z,99808.77
2024-04-21T02:35:33.774Z,99814.92
2024-04-21T02:38:05.517Z,99815.52
2024-04-21T02:40:36.149Z,99820.84
2024-04-21T02:43:08.126Z,99819.85
2024-04-21T02:45:38.758Z,99818.89
2024-04-21T02:48:10.510Z,99823.24
2024-04-21T02:50:40.715Z,99824.44
2024-04-21T02:53:12.684Z,99827.12
2024-04-21T02:55:46.693Z,99824.30
2024-04-21T02:58:19.152Z,99824.23
2024-04-21T03:00:49.580Z,99826.77
2024-04-21T03:03:21.537Z,99824.69
2024-04-21T03:05:56.707Z,99824.02
2024-04-21T03:08:28.655Z,99822.88
2024-04-21T03:10:59.261Z,99817.03
2024-04-21T03:13:31.082Z,99820.95
2024-04-21T03:16:05.578Z,99820.48
2024-04-21T03:18:37.421Z,99822.43
2024-04-21T03:21:07.856Z,99821.57
2024-04-21T03:23:39.908Z,99820.85
2024-04-21T03:26:10.332Z,99821.55
2024-04-21T03:28:42.006Z,99823.76
2024-04-21T03:31:12.556Z,99824.94
2024-04-21T03:33:44.176Z,99822.59
2024-04-21T03:36:14.707Z,99821.96
2024-04-21T03:38:46.570Z,99820.69
2024-04-21T03:41:17.083Z,99819.27
2024-04-21T03:43:49.252Z,99816.06
2024-04-21T03:46:23.179Z,99817.83
2024-04-21T03:48:56.595Z,99818.65
2024-04-21T03:51:26.996Z,99819.16
2024-04-21T03:53:58.753Z,99822.34
2024-04-21T03:56:29.069Z,99820.28
2024-04-21T03:59:00.824Z,99819.27
2024-04-21T04:01:31.419Z,99821.19
2024-04-21T04:04:04.192Z,99825.39
2024-04-21T04:06:34.671Z,99823.45
2024-04-21T04:09:06.549Z,99820.73
2024-04-21T04:11:37.437Z,99824.41
2024-04-21T04:14:09.224Z,99823.06
2024-04-21T04:16:39.749Z,99826.59
2024-04-21T04:19:11.669Z,99829.11
2024-04-21T04:21:41.932Z,99830.53
2024-04-21T04:24:13.796Z,99833.46
2024-04-21T04:26:44.232Z,99836.21
2024-04-21T04:29:15.801Z,99835.17
2024-04-21T04:31:45.990Z,99838.60
2024-04-21T04:34:17.859Z,99841.00
2024-04-21T04:36:48.685Z,99841.64
2024-04-21T04:39:20.758Z,99844.94
2024-04-21T04:41:51.290Z,99840.39
2024-04-21T04:44:22.936Z,99842.92
2024-04-21T04:46:53.370Z,99843.09
2024-04-21T04:49:25.198Z,99843.88
2024-04-21T04:51:55.777Z,99845.80
2024-04-21T04:54:27.518Z,99845.89
2024-04-21T04:56:58.247Z,99849.73
2024-04-21T04:59:30.106Z,99848.02
2024-04-21T05:02:00.589Z,99846.96
2024-04-21T05:04:32.863Z,99851.03
2024-04-21T05:07:03.350Z,99853.49
2024-04-21T05:09:35.396Z,99852.63
2024-04-21T05:12:06.239Z,99854.55
2024-04-21T05:14:38.047Z,99853.23
2024-04-21T05:17:08.553Z,99852.64
2024-04-21T05:19:40.576Z,99851.72
2024-04-21T05:22:11.030Z,99850.44
2024-04-21T05:24:42.985Z,99845.98
2024-04-21T05:27:14.976Z,99851.07
2024-04-21T05:29:48.118Z,99846.73
2024-04-21T05:32:18.610Z,99849.84
2024-04-21T05:34:50.320Z,99852.33
2024-04-21T05:37:20.768Z,99852.48
2024-04-21T05:39:52.634Z,99853.10
2024-04-21T05:42:23.118Z,99859.88
2024-04-21T05:44:54.672Z,99860.92
2024-04-21T05:47:25.133Z,99863.04
2024-04-21T05:49:56.957Z,99862.44
2024-04-21T05:52:27.447Z,99868.59
2024-04-21T05:54:59.191Z,99871.94
2024-04-21T05:57:29.676Z,99878.16
2024-04-21T06:00:01.963Z,99880.46
2024-04-21T06:02:37.078Z,99880.02
2024-04-21T06:05:07.747Z,99880.10
2024-04-21T06:07:39.461Z,99878.23
2024-04-21T06:10:10.371Z,99877.33
2024-04-21T06:12:42.366Z,99875.26
2024-04-21T06:15:12.688Z,99875.45
2024-04-21T06:17:44.514Z,99873.59
2024-04-21T06:20:15.173Z,99870.39
2024-04-21T06:22:46.934Z,99874.86
2024-04-21T06:25:17.418Z,99878.94
2024-04-21T06:27:49.267Z,99878.20
2024-04-21T06:30:19.850Z,99876.80
2024-04-21T06:32:52.072Z,99876.70
2024-04-21T06:35:22.444Z,99879.04
2024-04-21T06:37:54.205Z,99879.48
2024-04-21T06:40:24.885Z,99878.99
2024-04-21T06:42:57.131Z,99880.30
2024-04-21T06:45:28.045Z,99881.23
2024-04-21T06:47:59.859Z,99880.61
2024-04-21T06:50:33.579Z,99879.71
2024-04-21T06:53:06.159Z,99877.80
2024-04-21T06:55:36.611Z,99875.42
2024-04-21T06:58:08.816Z,99877.23
2024-04-21T07:00:40.942Z,99879.46
2024-04-21T07:03:13.116Z,99880.63
2024-04-21T07:05:43.633Z,99877.98
2024-04-21T07:08:15.404Z,99873.82
2024-04-21T07:10:45.946Z,99873.98
2024-04-21T07:13:17.807Z,99869.70
2024-04-21T07:15:48.249Z,99871.37
2024-04-21T07:18:20.068Z,99870.98
2024-04-21T07:20:50.700Z,99870.23
2024-04-21T07:23:22.357Z,99867.92
2024-04-21T07:25:53.254Z,99864.53
2024-04-21T07:28:25.645Z,99863.97
2024-04-21T07:30:56.130Z,99865.96
2024-04-21T07:33:27.742Z,99865.20
2024-04-21T07:35:58.165Z,99859.79
2024-04-21T07:38:29.823Z,99859.52
2024-04-21T07:41:00.356Z,99866.20
2024-04-21T07:43:32.106Z,99874.13
2024-04-21T07:46:03.625Z,99874.08
2024-04-21T07:48:35.350Z,99874.97
2024-04-21T07:51:05.846Z,99877.15
2024-04-21T07:53:37.402Z,99876.13
2024-04-21T07:56:08.029Z,99873.49
2024-04-21T07:58:39.796Z,99874.75
2024-04-21T08:01:10.430Z,99875.52
2024-04-21T08:03:42.196Z,99873.91
2024-04-21T08:06:13.005Z,99878.61
2024-04-21T08:08:46.891Z,99876.85
2024-04-21T08:11:20.755Z,99878.20
2024-04-21T08:13:52.276Z,99878.31
2024-04-21T08:16:24.107Z,99880.91
2024-04-21T08:18:55.011Z,99881.24
2024-04-21T08:21:26.837Z,99885.31
2024-04-21T08:23:57.266Z,99885.45
2024-04-21T08:26:29.025Z,99888.07
2024-04-21T08:28:59.444Z,99893.16
2024-04-21T08:31:31.570Z,99889.15
2024-04-21T08:34:02.143Z,99893.55
2024-04-21T08:36:34.003Z,99892.70
2024-04-21T08:39:05.800Z,99893.74
2024-04-21T08:41:41.095Z,99899.97
2024-04-21T08:44:14.630Z,99900.31
2024-04-21T08:46:45.122Z,99900.08
2024-04-21T08:49:17.426Z,99895.85
2024-04-21T08:51:47.921Z,99897.30
2024-04-21T08:54:20.002Z,99896.06
2024-04-21T08:56:52.214Z,99898.86
2024-04-21T08:59:24.947Z,99896.21
2024-04-21T09:01:56.308Z,99900.30
2024-04-21T09:04:28.793Z,99899.20
2024-04-21T09:06:59.343Z,99898.27
2024-04-21T09:09:31.663Z,99898.52
2024-04-21T09:12:02.282Z,99898.40
2024-04-21T09:14:44.492Z,99900.90
2024-04-21T09:17:16.570Z,99901.06
2024-04-21T09:19:47.074Z,99895.98
2024-04-21T09:22:18.757Z,99898.20
2024-04-21T09:24:49.394Z,99891.18
2024-04-21T09:27:21.020Z,99890.87
2024-04-21T09:29:51.445Z,99896.21
2024-04-21T09:32:23.138Z,99893.37
2024-04-21T09:34:57.112Z,99893.38
2024-04-21T09:37:28.688Z,99893.59
2024-04-21T09:39:59.597Z,99893.44
2024-04-21T09:42:32.627Z,99899.55
2024-04-21T09:45:03.078Z,99894.50
2024-04-21T09:47:35.098Z,99894.39
2024-04-21T09:50:08.920Z,99894.05
2024-04-21T09:52:48.441Z,99890.55
2024-04-21T09:55:20.535Z,99891.57
2024-04-21T09:58:02.151Z,99887.91
2024-04-21T10:00:34.554Z,99890.13
2024-04-21T10:03:06.264Z,99887.24
2024-04-21T10:05:38.377Z,99887.59
2024-04-21T10:08:08.832Z,99887.80
2024-04-21T10:10:40.586Z,99890.27
2024-04-21T10:13:11.110Z,99885.80
2024-04-21T10:15:42.954Z,99881.05
2024-04-21T10:18:25.016Z,99883.85
2024-04-21T10:20:57.622Z,99883.08
2024-04-21T10:23:28.261Z,99878.60
2024-04-21T10:25:59.927Z,99876.30
2024-04-21T10:28:30.704Z,99875.73
2024-04-21T10:31:05.551Z,99876.36
2024-04-21T10:33:45.122Z,99874.77
2024-04-21T10:36:20.962Z,99878.56
2024-04-21T10:38:56.868Z,99876.03
2024-04-21T10:41:28.476Z,99875.77
2024-04-21T10:43:58.721Z,99875.26
2024-04-21T10:46:30.660Z,99880.66
2024-04-21T10:49:01.324Z,99880.35
2024-04-21T10:51:33.913Z,99882.73
2024-04-21T10:54:04.597Z,99882.89
2024-04-21T10:56:37.637Z,99884.59
2024-04-21T10:59:09.140Z,99888.00
2024-04-21T11:01:40.814Z,99889.80
2024-04-21T11:04:11.353Z,99891.17
2024-04-21T11:06:43.076Z,99894.24
2024-04-21T11:09:13.922Z,99893.60
2024-04-21T11:11:45.472Z,99896.15
2024-04-21T11:14:16.214Z,99892.58
2024-04-21T11:16:54.055Z,99889.38
2024-04-21T11:19:25.800Z,99888.95
2024-04-21T11:21:56.526Z,99892.00
2024-04-21T11:24:28.349Z,99896.10
2024-04-21T11:27:00.036Z,99891.39
2024-04-21T11:29:34.530Z,99895.28
2024-04-21T11:32:10.389Z,99895.65
2024-04-21T11:34:45.380Z,99896.52
2024-04-21T11:37:20.239Z,99896.31
2024-04-21T11:39:52.094Z,99900.96
2024-04-21T11:42:22.738Z,99896.05
2024-04-21T11:44:53.874Z,99900.00
2024-04-21T11:47:24.574Z,99900.48
2024-04-21T11:49:56.478Z,99895.09
2024-04-21T11:52:27.049Z,99898.58
2024-04-21T11:54:58.905Z,99899.31
2024-04-21T11:57:29.604Z,99890.94
2024-04-21T12:00:03.230Z,99892.75
2024-04-21T12:02:37.523Z,99891.46
2024-04-21T12:05:08.267Z,99890.42
2024-04-21T12:07:40.215Z,99890.72
2024-04-21T12:10:11.076Z,99891.57
2024-04-21T12:12:44.029Z,99896.82
2024-04-21T12:15:14.874Z,99894.02
2024-04-21T12:17:46.744Z,99893.96
2024-04-21T12:20:17.250Z,99890.29
2024-04-21T12:22:50.649Z,99891.69
2024-04-21T12:25:21.451Z,99890.23
2024-04-21T12:27:53.637Z,99890.52
2024-04-21T12:30:24.293Z,99888.27
2024-04-21T12:32:56.575Z,99891.94
2024-04-21T12:35:27.099Z,99891.39
2024-04-21T12:37:59.045Z,99894.76
2024-04-21T12:40:29.492Z,99892.58
2024-04-21T12:43:01.373Z,99892.30
2024-04-21T12:45:32.079Z,99894.27
2024-04-21T12:48:05.410Z,99891.27
2024-04-21T12:50:35.981Z,99891.52
2024-04-21T12:53:08.789Z,99893.44
2024-04-21T12:55:40.170Z,99891.21
2024-04-21T12:58:12.456Z,99890.90
2024-04-21T13:00:43.130Z,99891.52
2024-04-21T13:03:16.016Z,99889.77
2024-04-21T13:05:46.634Z,99890.33
2024-04-21T13:08:19.187Z,99885.95
2024-04-21T13:10:50.108Z,99885.89
2024-04-21T13:13:21.937Z,99889.11
2024-04-21T13:15:52.851Z,99889.70
2024-04-21T13:18:24.837Z,99883.95
2024-04-21T13:20:55.435Z,99887.42
2024-04-21T13:23:27.307Z,99885.38
2024-04-21T13:25:57.828Z,99888.75
2024-04-21T13:28:29.794Z,99886.59
2024-04-21T13:31:01.011Z,99888.52
2024-04-21T13:33:32.844Z,99887.39
2024-04-21T13:36:04.035Z,99888.98
2024-04-21T13:38:36.314Z,99887.55
2024-04-21T13:41:07.038Z,99888.66
2024-04-21T13:43:38.917Z,99889.88
2024-04-21T13:46:09.488Z,99892.70
2024-04-21T13:48:41.286Z,99892.27
2024-04-21T13:51:20.363Z,99891.02
2024-04-21T13:54:03.534Z,99889.73
2024-04-21T13:56:36.640Z,99884.45
2024-04-21T13:59:07.569Z,99882.65
2024-04-21T14:01:39.459Z,99885.10
2024-04-21T14:04:12.098Z,99882.80
2024-04-21T14:06:44.075Z,99884.98
2024-04-21T14:09:14.510Z,99886.41
2024-04-21T14:11:46.160Z,99884.52
2024-04-21T14:14:16.788Z,99891.84
2024-04-21T14:16:48.905Z,99891.48
2024-04-21T14:19:19.915Z,99892.24
2024-04-21T14:21:51.443Z,99898.27
2024-04-21T14:24:21.966Z,99897.47
2024-04-21T14:26:53.937Z,99895.11
2024-04-21T14:29:24.454Z,99894.27
2024-04-21T14:31:56.207Z,99891.52
2024-04-21T14:34:26.662Z,99890.98
2024-04-21T14:36:58.431Z,99888.07
2024-04-21T14:39:28.825Z,99888.62
2024-04-21T14:42:02.109Z,99889.85
2024-04-21T14:44:36.550Z,99886.75
2024-04-21T14:47:08.770Z,99887.58
2024-04-21T14:49:39.473Z,99890.45
2024-04-21T14:52:11.281Z,99891.39
2024-04-21T14:54:41.825Z,99891.73
2024-04-21T14:57:14.710Z,99892.70
2024-04-21T14:59:45.235Z,99888.67
2024-04-21T15:02:17.266Z,99894.75
2024-04-21T15:04:47.848Z,99893.85
2024-04-21T15:07:19.899Z,99890.80
2024-04-21T15:09:50.320Z,99891.09
2024-04-21T15:12:22.290Z,99891.67
2024-04-21T15:14:52.710Z,99892.45
2024-04-21T15:17:24.693Z,99887.58
2024-04-21T15:19:56.050Z,99887.60
2024-04-21T15:22:28.896Z,99886.01
2024-04-21T15:24:59.560Z,99883.00
2024-04-21T15:27:31.393Z,99883.67
2024-04-21T15:30:02.466Z,99883.66
2024-04-21T15:32:34.216Z,99884.80
2024-04-21T15:35:05.152Z,99882.63
2024-04-21T15:37:39.800Z,99885.09
2024-04-21T15:40:13.830Z,99887.52
2024-04-21T15:42:44.606Z,99890.52
2024-04-21T15:45:17.816Z,99889.54
2024-04-21T15:47:48.500Z,99889.61
2024-04-21T15:50:20.584Z,99887.78
2024-04-21T15:52:54.105Z,99888.27
2024-04-21T15:55:29.162Z,99887.09
2024-04-21T15:58:01.360Z,99888.21
2024-04-21T16:00:34.770Z,99889.09
2024-04-21T16:03:06.603Z,99890.73
2024-04-21T16:05:37.382Z,99894.70
2024-04-21T16:08:09.451Z,99892.94
2024-04-21T16:10:42.511Z,99897.29
2024-04-21T16:13:14.637Z,99894.52
2024-04-21T16:15:45.877Z,99898.49
2024-04-21T16:18:17.696Z,99897.39
2024-04-21T16:20:48.345Z,99901.33
2024-04-21T16:23:20.318Z,99902.40
2024-04-21T16:25:50.938Z,99905.55
2024-04-21T16:28:22.772Z,99910.69
2024-04-21T16:30:53.409Z,99905.74
2024-04-21T16:33:25.837Z,99913.84
2024-04-21T16:35:58.437Z,99913.23
2024-04-21T16:38:30.610Z,99914.73
2024-04-21T16:41:01.285Z,99915.54
2024-04-21T16:43:35.041Z,99917.46
2024-04-21T16:46:06.249Z,99919.55
2024-04-21T16:48:38.450Z,99916.58
2024-04-21T16:51:09.565Z,99921.09
2024-04-21T16:53:42.069Z,99919.62
2024-04-21T16:56:12.728Z,99919.10
2024-04-21T16:58:44.930Z,99921.39
2024-04-21T17:01:15.889Z,99922.94
2024-04-21T17:03:48.449Z,99923.09
2024-04-21T17:06:20.308Z,99929.52
2024-04-21T17:08:52.398Z,99931.69
2024-04-21T17:11:23.300Z,99932.76
2024-04-21T17:13:55.351Z,99933.41
2024-04-21T17:16:25.791Z,99935.83
2024-04-21T17:18:57.572Z,99941.61
2024-04-21T17:21:28.066Z,99945.96
2024-04-21T17:23:59.812Z,99949.52
2024-04-21T17:26:30.246Z,99952.29
2024-04-21T17:29:02.165Z,99956.63
2024-04-21T17:31:32.565Z,99956.98
2024-04-21T17:34:04.311Z,99960.27
2024-04-21T17:36:35.336Z,99965.04
2024-04-21T17:39:07.272Z,99967.95
2024-04-21T17:41:38.322Z,99967.58
2024-04-21T17:44:10.087Z,99971.17
2024-04-21T17:46:50.676Z,99973.34
2024-04-21T17:49:22.596Z,99974.95
2024-04-21T17:51:53.029Z,99976.45
2024-04-21T17:54:25.302Z,99975.74
2024-04-21T17:56:57.731Z,99976.49
2024-04-21T17:59:29.946Z,99982.20
2024-04-21T18:02:00.359Z,99983.27
2024-04-21T18:04:32.014Z,99985.96
2024-04-21T18:07:02.730Z,99992.09
2024-04-21T18:09:34.626Z,99990.80
2024-04-21T18:12:05.539Z,99993.91
2024-04-21T18:14:37.318Z,99991.88
2024-04-21T18:17:13.984Z,99994.63
2024-04-21T18:19:54.129Z,99996.86
2024-04-21T18:22:24.594Z,99996.01
2024-04-21T18:24:56.321Z,99996.99
2024-04-21T18:27:26.871Z,99998.80
2024-04-21T18:29:59.009Z,100000.62
2024-04-21T18:32:29.635Z,100004.31
2024-04-21T18:35:01.509Z,100007.23
2024-04-21T18:37:31.963Z,100003.44
2024-04-21T18:40:06.489Z,100003.84
2024-04-21T18:42:39.439Z,100005.39
2024-04-21T18:45:11.049Z,100005.39
2024-04-21T18:47:42.871Z,100006.41
2024-04-21T18:50:13.383Z,100003.20
2024-04-21T18:52:45.176Z,100004.05
2024-04-21T18:55:15.876Z,100005.59
2024-04-21T18:57:47.629Z,100002.54
2024-04-21T19:00:18.482Z,100001.80
2024-04-21T19:02:52.629Z,100000.12
2024-04-21T19:05:23.223Z,100004.39
2024-04-21T19:07:54.961Z,100003.65
2024-04-21T19:10:27.801Z,100007.80
2024-04-21T19:13:00.264Z,100003.48
2024-04-21T19:15:31.161Z,100001.54
2024-04-21T19:18:03.474Z,100003.13
2024-04-21T19:20:34.469Z,100005.09
2024-04-21T19:23:10.116Z,100004.89
2024-04-21T19:25:41.888Z,100000.42
2024-04-21T19:28:12.320Z,99999.93
2024-04-21T19:30:43.957Z,99998.84
2024-04-21T19:33:14.608Z,99998.67
2024-04-21T19:35:46.354Z,99998.88
2024-04-21T19:38:16.874Z,99997.85
2024-04-21T19:40:51.592Z,99995.84
2024-04-21T19:43:24.744Z,99993.75
2024-04-21T19:45:57.885Z,99990.65
2024-04-21T19:48:29.792Z,99989.27
2024-04-21T19:51:01.190Z,99988.50
2024-04-21T19:53:33.159Z,99989.27
2024-04-21T19:56:09.039Z,99990.17
2024-04-21T19:58:41.609Z,99989.52
2024-04-21T20:01:12.578Z,99987.02
2024-04-21T20:03:44.967Z,99990.04
2024-04-21T20:06:15.523Z,99991.76
2024-04-21T20:08:49.164Z,99989.74
2024-04-21T20:11:22.287Z,99992.56
2024-04-21T20:13:54.180Z,99991.13
2024-04-21T20:16:43.512Z,99992.13
2024-04-21T20:19:15.552Z,99988.73
2024-04-21T20:21:46.240Z,99993.32
2024-04-21T20:24:18.004Z,99993.06
2024-04-21T20:26:51.008Z,99997.20
2024-04-21T20:29:23.971Z,99997.41
2024-04-21T20:31:54.393Z,99995.45
2024-04-21T20:34:26.449Z,99993.68
2024-04-21T20:36:56.991Z,99993.15
2024-04-21T20:39:29.571Z,99995.46
2024-04-21T20:41:59.884Z,99994.33
2024-04-21T20:44:31.950Z,99999.90
2024-04-21T20:47:02.479Z,99998.38
2024-04-21T20:49:34.679Z,100001.79
2024-04-21T20:52:05.588Z,99997.54
2024-04-21T20:54:37.453Z,100001.70
2024-04-21T20:57:07.780Z,100003.66
2024-04-21T20:59:39.530Z,100001.60
2024-04-21T21:02:10.080Z,99998.05
2024-04-21T21:04:42.007Z,100000.29
2024-04-21T21:07:12.785Z,99999.78
2024-04-21T21:09:45.037Z,100006.92
2024-04-21T21:12:15.655Z,100009.97
2024-04-21T21:14:47.299Z,100009.28
2024-04-21T21:17:18.410Z,100008.17
2024-04-21T21:19:50.214Z,100010.05
2024-04-21T21:22:20.769Z,100005.05
2024-04-21T21:24:52.503Z,100010.08
2024-04-21T21:27:23.122Z,100005.63
2024-04-21T21:29:54.682Z,100011.43
2024-04-21T21:32:25.183Z,100011.44
2024-04-21T21:34:56.965Z,100016.09
2024-04-21T21:37:27.521Z,100016.17
2024-04-21T21:39:59.347Z,100016.62
2024-04-21T21:42:29.888Z,100019.02
2024-04-21T21:45:01.551Z,100017.28
2024-04-21T21:47:32.160Z,100015.77
2024-04-21T21:50:04.355Z,100011.77
2024-04-21T21:52:37.690Z,100014.05
2024-04-21T21:55:09.601Z,100014.23
2024-04-21T21:57:40.297Z,100014.55
2024-04-21T22:00:13.401Z,100015.30
2024-04-21T22:02:43.857Z,100015.22
2024-04-21T22:05:15.690Z,100017.34
2024-04-21T22:07:46.219Z,100021.34
2024-04-21T22:10:18.310Z,100020.16
2024-04-21T22:12:48.919Z,100019.52
2024-04-21T22:15:21.803Z,100018.06
2024-04-21T22:17:52.356Z,100018.25
2024-04-21T22:20:24.192Z,100014.32
2024-04-21T22:22:54.618Z,100013.50
2024-04-21T22:25:26.529Z,100013.33
2024-04-21T22:27:56.898Z,100013.85
2024-04-21T22:30:28.552Z,100015.77
2024-04-21T22:32:59.332Z,100020.16
2024-04-21T22:35:31.254Z,100015.30
2024-04-21T22:38:01.608Z,100015.73
2024-04-21T22:40:33.364Z,100014.11
2024-04-21T22:43:04.430Z,100006.58
2024-04-21T22:45:36.134Z,100008.50
2024-04-21T22:48:07.276Z,100007.12
2024-04-21T22:50:39.035Z,100005.03
2024-04-21T22:53:09.871Z,100005.31
2024-04-21T22:55:41.678Z,100004.23
2024-04-21T22:58:12.296Z,100003.28
2024-04-21T23:00:44.941Z,100005.51
2024-04-21T23:03:15.370Z,100006.35
2024-04-21T23:05:47.309Z,100009.67
2024-04-21T23:08:17.751Z,100009.78
2024-04-21T23:10:58.364Z,100008.71
2024-04-21T23:13:30.420Z,100013.80
2024-04-21T23:16:05.442Z,100010.48
2024-04-21T23:18:37.333Z,100014.55
2024-04-21T23:21:07.902Z,100017.36
2024-04-21T23:23:40.581Z,100015.00
2024-04-21T23:26:11.007Z,100016.02
2024-04-21T23:28:42.904Z,100016.27
2024-04-21T23:31:17.153Z,100018.25
2024-04-21T23:33:49.324Z,100016.98
2024-04-21T23:36:19.980Z,100016.11
2024-04-21T23:38:51.938Z,100014.23
2024-04-21T23:41:22.371Z,100012.72
2024-04-21T23:43:54.627Z,100013.25
2024-04-21T23:46:25.216Z,100012.48
2024-04-21T23:48:56.931Z,100010.15
2024-04-21T23:51:27.457Z,100009.09
2024-04-21T23:53:59.122Z,100008.74
2024-04-21T23:56:29.632Z,100011.09
2024-04-21T23:59:01.607Z,100012.75
